Time;durP1;ratioP1;P1;durP2;ratioP2;P2;SDS_P1;SDS_P2;PMS_P1;PMS_P2;Temp;Humidity;BMP_temperature;BMP_pressure;BME280_temperature;BME280_humidity;BME280_pressure;Samples;Min_cycle;Max_cycle;Signal;HPM_P1;HPM_P2
2023/12/10 00:01:34;;;;;;;2.00;1.85;;;9.10;1.00;;;;;;4965849;28;20035;-78
2023/12/10 00:04:01;;;;;;;0.03;0.03;;;9.10;1.00;;;;;;4967678;28;20042;-78
2023/12/10 00:06:27;;;;;;;0.30;0.30;;;9.00;1.00;;;;;;4969485;28;20043;-79
2023/12/10 00:08:53;;;;;;;3.15;1.83;;;9.00;1.00;;;;;;4963632;28;20039;-84
2023/12/10 00:11:20;;;;;;;0.60;0.60;;;9.00;1.00;;;;;;4958379;28;20046;-79
2023/12/10 00:13:46;;;;;;;3.72;0.47;;;9.00;1.00;;;;;;4967659;28;20039;-83
2023/12/10 00:16:12;;;;;;;1.88;0.95;;;8.90;1.00;;;;;;4967488;28;20042;-82
2023/12/10 00:18:39;;;;;;;0.57;0.57;;;8.90;1.00;;;;;;4972726;28;20453;-78
2023/12/10 00:21:05;;;;;;;0.98;0.63;;;9.10;99.90;;;;;;4968927;28;20030;-82
2023/12/10 00:23:32;;;;;;;2.65;0.95;;;9.20;99.90;;;;;;4971091;28;20486;-80
2023/12/10 00:25:58;;;;;;;0.52;0.52;;;9.00;1.00;;;;;;4967243;28;20031;-81
2023/12/10 00:28:24;;;;;;;5.15;2.83;;;9.10;99.90;;;;;;4969012;28;20035;-87
2023/12/10 00:30:50;;;;;;;1.17;1.13;;;9.20;99.90;;;;;;4974459;28;20039;-83
2023/12/10 00:33:17;;;;;;;0.50;0.50;;;9.30;99.90;;;;;;4980174;28;20029;-83
2023/12/10 00:35:43;;;;;;;0.98;0.75;;;9.30;99.90;;;;;;4983698;28;20027;-85
2023/12/10 00:38:09;;;;;;;0.65;0.60;;;9.30;99.90;;;;;;4982669;28;20046;-91
2023/12/10 00:40:36;;;;;;;0.50;0.50;;;9.30;99.90;;;;;;4975094;28;20042;-82
2023/12/10 00:43:02;;;;;;;14.73;1.27;;;9.30;99.90;;;;;;4965879;28;20037;-82
2023/12/10 00:45:29;;;;;;;7.43;1.88;;;9.40;99.90;;;;;;4970223;28;20047;-82
2023/12/10 00:47:55;;;;;;;31.15;5.18;;;9.30;99.90;;;;;;4970471;28;20369;-87
2023/12/10 00:50:21;;;;;;;6.97;1.92;;;9.30;99.90;;;;;;4973324;28;20453;-80
2023/12/10 00:52:47;;;;;;;3.00;1.60;;;9.20;99.90;;;;;;4963786;28;20031;-87
2023/12/10 00:55:14;;;;;;;5.72;1.83;;;9.40;99.90;;;;;;4967008;28;20034;-89
2023/12/10 00:57:40;;;;;;;1.35;0.90;;;9.50;99.90;;;;;;4968987;28;20039;-87
2023/12/10 01:00:06;;;;;;;1.85;0.57;;;9.40;99.90;;;;;;4971763;28;20038;-86
2023/12/10 01:02:33;;;;;;;0.57;0.57;;;9.30;99.90;;;;;;4948794;28;20039;-88
2023/12/10 01:04:59;;;;;;;2.25;1.42;;;9.40;99.90;;;;;;4966562;28;20038;-80
2023/12/10 01:07:25;;;;;;;0.75;0.75;;;9.40;99.90;;;;;;4971099;28;20034;-83
2023/12/10 01:09:51;;;;;;;0.73;0.73;;;9.60;99.90;;;;;;4969562;28;20050;-80
2023/12/10 01:12:18;;;;;;;1.95;0.73;;;9.60;99.90;;;;;;4968790;28;20031;-82
2023/12/10 01:14:44;;;;;;;6.15;2.20;;;9.60;99.90;;;;;;4965152;28;20027;-89
2023/12/10 01:17:12;;;;;;;6.97;2.28;;;9.50;99.90;;;;;;4952311;28;20051;-85
2023/12/10 01:19:39;;;;;;;2.03;0.90;;;9.50;99.90;;;;;;4969035;28;20041;-81
2023/12/10 01:22:05;;;;;;;8.10;1.48;;;9.80;68.30;;;;;;4971719;28;20461;-79
2023/12/10 01:24:31;;;;;;;1.08;1.05;;;9.60;71.70;;;;;;4967430;28;20031;-81
2023/12/10 01:26:58;;;;;;;3.03;0.55;;;9.70;47.10;;;;;;4964979;28;20095;-79
2023/12/10 01:29:25;;;;;;;3.55;1.33;;;9.70;60.60;;;;;;4965503;28;20050;-79
2023/12/10 01:31:51;;;;;;;6.70;0.93;;;9.70;21.40;;;;;;4956200;28;20050;-82
2023/12/10 01:34:18;;;;;;;0.63;0.63;;;9.70;53.60;;;;;;4967934;28;20049;-85
2023/12/10 01:36:44;;;;;;;11.18;0.73;;;9.70;56.30;;;;;;4968527;28;20445;-79
2023/12/10 01:39:10;;;;;;;0.70;0.70;;;9.70;49.70;;;;;;4966057;28;20060;-80
2023/12/10 01:41:36;;;;;;;1.33;1.23;;;9.80;1.00;;;;;;4969502;28;20031;-79
2023/12/10 01:44:03;;;;;;;0.30;0.30;;;9.90;1.00;;;;;;4970545;28;20043;-78
2023/12/10 01:46:29;;;;;;;8.18;3.92;;;9.80;1.00;;;;;;4975441;28;20051;-82
2023/12/10 01:48:57;;;;;;;1.40;1.30;;;9.80;1.00;;;;;;4990206;28;20019;-81
2023/12/10 01:51:24;;;;;;;3.42;1.33;;;9.80;1.00;;;;;;4982922;28;20042;-82
2023/12/10 01:53:51;;;;;;;7.00;0.80;;;9.90;1.00;;;;;;4967898;28;20196;-80
2023/12/10 01:56:17;;;;;;;2.33;1.00;;;9.80;1.00;;;;;;4971733;28;20412;-80
2023/12/10 01:58:44;;;;;;;0.52;0.52;;;9.80;1.00;;;;;;4975542;28;20449;-81
2023/12/10 02:01:10;;;;;;;4.53;2.00;;;9.80;1.00;;;;;;4977005;28;20055;-88
2023/12/10 02:03:37;;;;;;;1.80;1.40;;;9.80;1.00;;;;;;4960992;28;20035;-85
2023/12/10 02:06:04;;;;;;;0.43;0.43;;;9.80;1.00;;;;;;4968880;28;20042;-83
2023/12/10 02:08:30;;;;;;;8.43;2.78;;;9.80;1.00;;;;;;4960047;28;20043;-85
2023/12/10 02:10:57;;;;;;;6.18;2.05;;;9.80;1.00;;;;;;4977959;28;20031;-82
2023/12/10 02:13:25;;;;;;;1.85;1.05;;;9.80;1.00;;;;;;4973208;28;20043;-81
2023/12/10 02:15:53;;;;;;;1.48;0.95;;;10.00;1.00;;;;;;4965464;28;20054;-80
2023/12/10 02:18:20;;;;;;;3.42;1.23;;;10.00;99.90;;;;;;4991803;28;20026;-76
2023/12/10 02:20:47;;;;;;;0.30;0.30;;;10.00;1.00;;;;;;4964118;28;20051;-77
2023/12/10 02:23:49;;;;;;;0.20;0.20;;;9.40;2.40;;;;;;4959717;28;20039;-77
2023/12/10 02:26:16;;;;;;;0.20;0.20;;;8.60;99.90;;;;;;4949893;28;20052;-83
2023/12/10 02:28:42;;;;;;;1.23;0.82;;;8.20;99.90;;;;;;4956574;28;20040;-84
2023/12/10 02:31:09;;;;;;;0.10;0.10;;;8.10;99.90;;;;;;4964518;28;20057;-82
2023/12/10 02:33:35;;;;;;;0.20;0.20;;;8.00;99.90;;;;;;4968991;28;20039;-79
2023/12/10 02:36:02;;;;;;;0.10;0.10;;;8.10;99.90;;;;;;4968181;28;20103;-83
2023/12/10 02:38:28;;;;;;;0.35;0.35;;;8.20;99.90;;;;;;4959026;28;20034;-79
2023/12/10 02:40:54;;;;;;;4.03;2.60;;;8.10;99.90;;;;;;4954922;28;20039;-83
2023/12/10 02:43:21;;;;;;;3.53;0.73;;;8.10;99.90;;;;;;4956786;28;20038;-81
2023/12/10 02:45:47;;;;;;;0.30;0.30;;;8.10;99.90;;;;;;4918227;28;1107223;-83
2023/12/10 02:48:14;;;;;;;2.85;1.13;;;8.20;99.90;;;;;;4965450;28;20492;-80
2023/12/10 02:50:40;;;;;;;3.10;0.35;;;8.30;71.30;;;;;;4963129;28;20046;-82
2023/12/10 02:53:06;;;;;;;0.10;0.10;;;8.20;89.10;;;;;;4966825;28;20031;-82
2023/12/10 02:55:32;;;;;;;0.10;0.10;;;8.30;49.00;;;;;;4962323;28;20034;-79
2023/12/10 02:57:59;;;;;;;0.10;0.10;;;8.20;61.80;;;;;;4962795;28;20035;-81
2023/12/10 03:00:25;;;;;;;7.03;1.58;;;8.20;32.80;;;;;;4951793;28;20047;-81
2023/12/10 03:02:51;;;;;;;26.88;17.30;;;8.10;55.30;;;;;;4963500;28;20027;-80
2023/12/10 03:05:17;;;;;;;22.63;12.02;;;8.00;93.70;;;;;;4966853;28;20511;-80
2023/12/10 03:07:44;;;;;;;2.35;2.15;;;7.70;99.90;;;;;;4967528;28;20031;-80
2023/12/10 03:10:10;;;;;;;1.02;0.70;;;7.70;99.90;;;;;;4961234;28;20047;-79
2023/12/10 03:12:36;;;;;;;0.10;0.10;;;7.70;99.90;;;;;;4962525;28;20042;-85
2023/12/10 03:15:03;;;;;;;0.28;0.28;;;7.90;84.60;;;;;;4966220;28;20328;-84
2023/12/10 03:17:29;;;;;;;2.47;1.65;;;8.00;84.10;;;;;;4950299;28;20046;-83
2023/12/10 03:19:55;;;;;;;0.40;0.40;;;8.10;85.40;;;;;;4966047;28;20741;-83
2023/12/10 03:22:21;;;;;;;2.83;1.27;;;8.10;92.60;;;;;;4949850;28;20042;-82
2023/12/10 03:24:48;;;;;;;5.32;1.13;;;8.10;94.40;;;;;;4964296;28;20043;-83
2023/12/10 03:27:14;;;;;;;1.10;1.10;;;8.10;86.90;;;;;;4965485;28;20038;-83
2023/12/10 03:29:40;;;;;;;0.10;0.10;;;8.50;1.00;;;;;;4965878;28;20047;-86
2023/12/10 03:32:06;;;;;;;1.83;1.40;;;8.40;1.00;;;;;;4964775;28;20038;-84
2023/12/10 03:34:33;;;;;;;0.90;0.90;;;8.40;1.00;;;;;;4961639;28;20425;-81
2023/12/10 03:37:00;;;;;;;0.20;0.20;;;8.30;1.00;;;;;;4963144;28;20043;-81
2023/12/10 03:39:26;;;;;;;0.82;0.45;;;8.30;1.00;;;;;;4964719;28;20062;-82
2023/12/10 03:41:53;;;;;;;4.85;1.63;;;8.20;1.00;;;;;;4966519;28;20062;-81
2023/12/10 03:44:19;;;;;;;0.43;0.25;;;8.10;1.00;;;;;;4964945;28;20031;-81
2023/12/10 03:46:45;;;;;;;4.32;0.30;;;8.00;22.30;;;;;;4964545;28;20425;-83
2023/12/10 03:49:11;;;;;;;0.65;0.57;;;8.00;29.20;;;;;;4965896;28;20035;-81
2023/12/10 03:51:38;;;;;;;3.33;2.17;;;7.90;26.60;;;;;;4966168;28;20039;-80
2023/12/10 03:54:04;;;;;;;3.08;2.78;;;7.90;4.60;;;;;;4962495;28;20049;-81
2023/12/10 03:56:30;;;;;;;0.75;0.75;;;7.90;22.90;;;;;;4963630;28;20036;-81
2023/12/10 03:58:56;;;;;;;1.45;1.35;;;7.80;44.70;;;;;;4966250;28;20038;-80
2023/12/10 04:01:23;;;;;;;6.50;1.77;;;7.70;50.60;;;;;;4969996;28;20512;-80
2023/12/10 04:03:50;;;;;;;0.40;0.40;;;7.70;56.20;;;;;;4967247;28;20491;-80
2023/12/10 04:06:16;;;;;;;0.63;0.63;;;7.70;62.80;;;;;;4964036;28;20039;-83
2023/12/10 04:08:43;;;;;;;4.40;3.05;;;7.70;66.60;;;;;;4966022;28;20027;-83
2023/12/10 04:11:10;;;;;;;0.68;0.68;;;7.80;97.60;;;;;;4966691;28;20039;-83
2023/12/10 04:13:36;;;;;;;0.28;0.28;;;7.80;99.90;;;;;;4966862;28;20050;-82
2023/12/10 04:16:03;;;;;;;0.68;0.57;;;7.90;99.90;;;;;;4964093;28;20039;-83
2023/12/10 04:18:29;;;;;;;0.30;0.30;;;7.90;99.90;;;;;;4965135;28;20035;-83
2023/12/10 04:20:56;;;;;;;2.47;1.35;;;7.80;99.90;;;;;;4963782;28;20427;-83
2023/12/10 04:23:22;;;;;;;1.55;0.80;;;7.90;99.90;;;;;;4981802;28;20019;-82
2023/12/10 04:25:49;;;;;;;0.63;0.63;;;7.90;99.90;;;;;;4987438;28;20038;-80
2023/12/10 04:28:16;;;;;;;0.32;0.32;;;7.80;99.90;;;;;;4967701;28;20028;-83
2023/12/10 04:30:42;;;;;;;3.00;2.28;;;7.80;99.90;;;;;;4964161;28;20035;-83
2023/12/10 04:33:08;;;;;;;1.98;0.90;;;7.80;99.90;;;;;;4966067;28;20380;-83
2023/12/10 04:35:34;;;;;;;0.70;0.60;;;7.80;99.90;;;;;;4970956;28;20042;-82
2023/12/10 04:38:00;;;;;;;4.75;0.90;;;7.90;99.90;;;;;;4972435;28;20035;-83
2023/12/10 04:40:27;;;;;;;1.27;1.10;;;7.80;99.90;;;;;;4970715;28;20035;-81
2023/12/10 04:42:53;;;;;;;1.40;1.17;;;7.90;89.10;;;;;;4985974;28;20027;-82
2023/12/10 04:45:19;;;;;;;1.15;1.05;;;8.00;43.20;;;;;;4967249;28;20049;-82
2023/12/10 04:47:45;;;;;;;0.15;0.15;;;8.00;42.80;;;;;;4962557;28;20377;-82
2023/12/10 04:50:12;;;;;;;0.32;0.30;;;8.00;1.00;;;;;;4962224;28;20039;-83
2023/12/10 04:52:38;;;;;;;1.13;1.02;;;8.10;1.00;;;;;;4966697;28;20035;-81
2023/12/10 04:55:04;;;;;;;0.10;0.10;;;8.00;1.00;;;;;;4966088;28;20388;-83
2023/12/10 04:57:31;;;;;;;1.65;0.75;;;8.10;1.00;;;;;;4965312;28;20035;-83
2023/12/10 04:59:57;;;;;;;1.27;1.27;;;8.20;1.00;;;;;;4959002;28;20487;-84
2023/12/10 05:02:23;;;;;;;0.52;0.45;;;8.20;1.00;;;;;;4962338;28;20031;-83
2023/12/10 05:04:49;;;;;;;0.38;0.38;;;8.20;1.00;;;;;;4965350;28;20342;-84
2023/12/10 05:07:15;;;;;;;0.25;0.25;;;8.40;1.00;;;;;;4966421;28;20031;-84
2023/12/10 05:09:43;;;;;;;0.10;0.10;;;8.50;1.00;;;;;;4963457;28;20054;-86
2023/12/10 05:12:09;;;;;;;1.75;1.27;;;8.50;99.90;;;;;;4960949;28;20039;-85
2023/12/10 05:14:35;;;;;;;0.13;0.13;;;8.60;99.90;;;;;;4966076;28;20027;-83
2023/12/10 05:17:01;;;;;;;1.83;0.68;;;8.60;99.90;;;;;;4966517;28;20034;-82
2023/12/10 05:19:28;;;;;;;5.05;0.75;;;8.70;99.90;;;;;;4967489;28;20331;-81
2023/12/10 05:21:54;;;;;;;0.63;0.63;;;8.70;99.90;;;;;;4976924;28;20046;-83
2023/12/10 05:24:21;;;;;;;1.23;1.15;;;8.70;99.90;;;;;;4974584;28;20029;-81
2023/12/10 05:26:47;;;;;;;3.72;1.33;;;8.70;99.90;;;;;;4953699;28;20047;-83
2023/12/10 05:29:13;;;;;;;0.10;0.10;;;8.60;99.90;;;;;;4972004;28;20480;-83
2023/12/10 05:31:40;;;;;;;2.40;1.67;;;8.60;99.90;;;;;;4969649;28;20042;-81
2023/12/10 05:34:07;;;;;;;6.03;1.30;;;8.70;99.90;;;;;;4969329;28;20035;-86
2023/12/10 05:36:33;;;;;;;0.73;0.50;;;8.70;99.90;;;;;;4971033;28;20071;-83
2023/12/10 05:38:59;;;;;;;3.00;1.23;;;8.60;99.90;;;;;;4970637;28;20456;-83
2023/12/10 05:41:25;;;;;;;0.65;0.65;;;8.50;99.90;;;;;;4967821;28;20034;-84
2023/12/10 05:43:51;;;;;;;0.20;0.20;;;8.50;99.90;;;;;;4968223;28;20061;-82
2023/12/10 05:46:18;;;;;;;0.98;0.95;;;8.60;99.90;;;;;;4968431;28;20050;-75
2023/12/10 05:48:44;;;;;;;1.23;0.43;;;8.60;99.90;;;;;;4968892;28;20046;-76
2023/12/10 05:51:10;;;;;;;0.85;0.85;;;8.70;99.90;;;;;;4969227;28;20054;-78
2023/12/10 05:53:36;;;;;;;0.20;0.20;;;8.70;99.90;;;;;;4957128;28;20043;-78
2023/12/10 05:56:03;;;;;;;0.68;0.63;;;8.80;99.90;;;;;;4965882;28;20048;-78
2023/12/10 05:58:30;;;;;;;2.78;0.75;;;8.80;99.90;;;;;;4967429;28;20030;-82
2023/12/10 06:00:56;;;;;;;0.10;0.10;;;8.80;99.90;;;;;;4968745;28;20031;-82
2023/12/10 06:03:24;;;;;;;0.10;0.10;;;8.90;99.90;;;;;;4968777;28;20042;-82
2023/12/10 06:05:51;;;;;;;7.88;1.65;;;8.80;99.90;;;;;;4945835;28;20062;-81
2023/12/10 06:08:17;;;;;;;0.68;0.57;;;8.80;99.90;;;;;;4968298;28;20053;-81
2023/12/10 06:10:43;;;;;;;1.15;1.05;;;8.80;99.90;;;;;;4969025;28;20396;-80
2023/12/10 06:13:10;;;;;;;0.10;0.10;;;8.90;99.90;;;;;;4966173;28;20111;-81
2023/12/10 06:15:36;;;;;;;0.30;0.30;;;8.90;99.90;;;;;;4965430;28;20035;-82
2023/12/10 06:18:03;;;;;;;0.20;0.15;;;8.90;99.90;;;;;;4970901;28;20023;-82
2023/12/10 06:20:29;;;;;;;2.50;1.27;;;8.80;99.90;;;;;;4965825;28;20041;-78
2023/12/10 06:22:55;;;;;;;2.08;1.70;;;8.90;99.90;;;;;;4968553;28;20031;-84
2023/12/10 06:25:21;;;;;;;0.38;0.38;;;9.00;99.90;;;;;;4969493;28;20054;-87
2023/12/10 06:27:47;;;;;;;0.52;0.52;;;9.00;99.90;;;;;;4971139;28;20042;-84
2023/12/10 06:30:14;;;;;;;1.20;0.73;;;8.90;99.90;;;;;;4946198;28;20404;-84
2023/12/10 06:32:41;;;;;;;3.88;2.47;;;8.90;99.90;;;;;;4964797;28;20065;-85
2023/12/10 06:35:08;;;;;;;0.10;0.10;;;8.90;99.90;;;;;;4967051;28;20373;-87
2023/12/10 06:37:34;;;;;;;1.65;1.35;;;9.00;99.90;;;;;;4961868;28;20034;-83
2023/12/10 06:40:00;;;;;;;0.68;0.68;;;9.00;99.90;;;;;;4968091;28;20038;-85
2023/12/10 06:42:27;;;;;;;1.08;0.50;;;9.00;99.90;;;;;;4976757;28;20038;-81
2023/12/10 06:44:53;;;;;;;0.63;0.63;;;9.00;99.90;;;;;;4968767;28;20031;-84
2023/12/10 06:47:20;;;;;;;1.40;1.00;;;9.00;99.90;;;;;;4966981;28;20051;-84
2023/12/10 06:49:46;;;;;;;0.38;0.38;;;9.00;99.90;;;;;;4962131;28;20036;-84
2023/12/10 06:52:12;;;;;;;0.88;0.85;;;9.00;99.90;;;;;;4967293;28;20034;-83
2023/12/10 06:54:40;;;;;;;1.27;0.60;;;9.10;99.90;;;;;;4980168;28;20045;-82
2023/12/10 06:57:06;;;;;;;12.02;0.93;;;9.00;99.90;;;;;;4972847;28;20041;-84
2023/12/10 06:59:32;;;;;;;11.95;1.55;;;9.00;99.90;;;;;;4964955;28;20022;-82
2023/12/10 07:01:58;;;;;;;0.35;0.35;;;9.00;99.90;;;;;;4963552;28;20031;-83
2023/12/10 07:04:24;;;;;;;0.20;0.20;;;8.90;99.90;;;;;;4968286;28;20028;-84
2023/12/10 07:06:51;;;;;;;1.08;0.70;;;8.90;99.90;;;;;;4964831;28;20042;-85
2023/12/10 07:09:17;;;;;;;0.22;0.22;;;8.90;99.90;;;;;;4960185;28;20757;-81
2023/12/10 07:11:43;;;;;;;0.43;0.43;;;8.90;99.90;;;;;;4962099;28;20043;-83
2023/12/10 07:14:09;;;;;;;1.50;1.05;;;8.90;99.90;;;;;;4968762;28;20046;-85
2023/12/10 07:16:35;;;;;;;0.10;0.10;;;8.90;99.90;;;;;;4965747;28;20389;-87
2023/12/10 07:19:02;;;;;;;3.63;1.13;;;8.90;99.90;;;;;;4967619;28;20034;-86
2023/12/10 07:21:28;;;;;;;0.43;0.43;;;9.00;99.30;;;;;;4966290;28;20079;-88
2023/12/10 07:23:54;;;;;;;0.10;0.10;;;9.10;99.90;;;;;;4965244;28;20030;-87
2023/12/10 07:26:24;;;;;;;0.10;0.10;;;9.10;95.40;;;;;;4970947;28;20031;-91
2023/12/10 07:28:51;;;;;;;9.57;1.08;;;9.00;99.90;;;;;;4975428;28;20049;-85
2023/12/10 07:31:18;;;;;;;1.55;0.68;;;9.10;83.40;;;;;;4974424;28;20058;-81
2023/12/10 07:33:45;;;;;;;5.28;0.77;;;9.10;84.50;;;;;;4985540;28;20019;-79
2023/12/10 07:36:11;;;;;;;0.10;0.10;;;9.10;73.20;;;;;;4971729;28;20027;-83
2023/12/10 07:38:38;;;;;;;0.20;0.15;;;9.10;60.00;;;;;;4962803;28;20042;-84
2023/12/10 07:41:05;;;;;;;17.33;2.05;;;9.10;74.30;;;;;;4962479;28;20043;-86
2023/12/10 07:43:31;;;;;;;1.42;0.95;;;9.10;73.70;;;;;;4963636;28;20038;-87
2023/12/10 07:45:57;;;;;;;1.05;1.02;;;9.00;88.80;;;;;;4964809;28;20384;-89
2023/12/10 07:48:23;;;;;;;0.10;0.10;;;9.00;80.70;;;;;;4965347;28;20477;-82
2023/12/10 07:50:50;;;;;;;0.22;0.22;;;9.00;93.20;;;;;;4959390;28;20047;-83
2023/12/10 07:53:17;;;;;;;3.50;0.95;;;9.00;91.20;;;;;;4958262;28;20050;-84
2023/12/10 07:55:43;;;;;;;0.85;0.85;;;9.00;93.50;;;;;;4964225;28;20039;-81
2023/12/10 07:58:10;;;;;;;0.63;0.63;;;9.10;69.30;;;;;;4964754;28;20045;-81
2023/12/10 08:00:37;;;;;;;0.75;0.75;;;9.10;79.00;;;;;;4962089;28;20038;-84
2023/12/10 08:03:05;;;;;;;0.73;0.73;;;9.10;62.80;;;;;;4957903;28;20047;-86
2023/12/10 08:05:31;;;;;;;1.40;1.30;;;9.00;89.80;;;;;;4963581;28;20027;-84
2023/12/10 08:08:02;;;;;;;0.22;0.22;;;8.90;98.20;;;;;;4964244;28;20035;-84
2023/12/10 08:10:29;;;;;;;0.30;0.30;;;8.90;91.60;;;;;;4961442;28;20046;-84
2023/12/10 08:12:55;;;;;;;2.35;0.80;;;9.00;94.40;;;;;;4957875;28;20054;-87
2023/12/10 08:15:22;;;;;;;11.05;1.55;;;9.00;83.80;;;;;;4961380;28;20031;-83
2023/12/10 08:17:48;;;;;;;0.32;0.30;;;8.90;82.50;;;;;;4973371;28;20103;-80
2023/12/10 08:20:14;;;;;;;0.30;0.30;;;8.90;84.50;;;;;;4964896;28;20487;-86
2023/12/10 08:22:41;;;;;;;0.28;0.28;;;9.00;45.00;;;;;;4963851;28;20038;-84
2023/12/10 08:25:07;;;;;;;0.65;0.60;;;9.00;76.00;;;;;;4964891;28;20816;-84
2023/12/10 08:27:33;;;;;;;0.43;0.43;;;8.90;83.60;;;;;;4965829;28;20031;-85
2023/12/10 08:29:59;;;;;;;9.55;1.65;;;9.00;59.00;;;;;;4963347;28;20038;-84
2023/12/10 08:32:27;;;;;;;1.20;1.10;;;9.00;68.50;;;;;;4965652;28;20054;-83
2023/12/10 08:34:53;;;;;;;4.82;1.17;;;9.00;87.40;;;;;;4961125;28;20596;-82
2023/12/10 08:37:20;;;;;;;3.55;1.27;;;9.00;76.90;;;;;;4960415;28;20487;-82
2023/12/10 08:39:48;;;;;;;0.73;0.40;;;9.10;73.80;;;;;;4964607;28;20035;-81
2023/12/10 08:42:14;;;;;;;7.80;1.75;;;9.10;64.00;;;;;;4965043;28;20034;-83
2023/12/10 08:44:41;;;;;;;0.25;0.25;;;9.20;59.70;;;;;;4964915;28;20043;-84
2023/12/10 08:47:07;;;;;;;16.55;1.17;;;9.30;26.90;;;;;;4956459;28;20054;-82
2023/12/10 08:49:33;;;;;;;1.05;0.90;;;9.30;23.70;;;;;;4963956;28;20050;-83
2023/12/10 08:51:59;;;;;;;6.55;0.65;;;9.30;30.40;;;;;;4965792;28;20053;-83
2023/12/10 08:54:26;;;;;;;0.65;0.65;;;9.30;39.60;;;;;;4961687;28;20046;-82
2023/12/10 08:56:52;;;;;;;0.10;0.10;;;9.30;41.90;;;;;;4962173;28;20038;-81
2023/12/10 08:59:18;;;;;;;4.47;0.82;;;9.40;1.00;;;;;;4970353;28;20031;-80
2023/12/10 09:01:44;;;;;;;1.80;1.65;;;9.50;1.00;;;;;;4968852;28;20032;-80
2023/12/10 09:04:11;;;;;;;0.45;0.45;;;9.60;1.00;;;;;;4972047;28;20035;-79
2023/12/10 09:06:37;;;;;;;0.10;0.10;;;9.70;1.00;;;;;;4981180;28;20035;-81
2023/12/10 09:09:03;;;;;;;0.52;0.52;;;9.80;1.00;;;;;;4980903;28;20039;-80
2023/12/10 09:11:30;;;;;;;0.85;0.75;;;9.90;1.00;;;;;;4984753;28;20053;-79
2023/12/10 09:13:57;;;;;;;0.80;0.80;;;9.90;1.00;;;;;;4967266;28;20058;-80
2023/12/10 09:16:23;;;;;;;6.88;0.47;;;9.90;1.00;;;;;;4963280;28;20031;-83
2023/12/10 09:18:49;;;;;;;0.90;0.90;;;9.90;1.00;;;;;;4941310;29;20519;-80
2023/12/10 09:21:15;;;;;;;0.50;0.50;;;10.00;1.00;;;;;;4967256;28;20030;-87
2023/12/10 09:23:43;;;;;;;0.35;0.35;;;10.00;1.00;;;;;;4968173;28;20035;-80
2023/12/10 09:26:10;;;;;;;1.13;1.02;;;10.10;1.00;;;;;;4964963;28;20027;-80
2023/12/10 09:28:37;;;;;;;0.50;0.50;;;10.00;1.00;;;;;;4955129;28;20053;-81
2023/12/10 09:31:03;;;;;;;0.28;0.28;;;10.00;1.00;;;;;;4968075;28;20038;-83
2023/12/10 09:33:31;;;;;;;8.57;1.05;;;10.00;1.00;;;;;;4972420;28;20042;-83
2023/12/10 09:35:57;;;;;;;0.30;0.30;;;10.00;1.00;;;;;;4968655;28;20041;-83
2023/12/10 09:38:23;;;;;;;0.52;0.52;;;9.90;1.00;;;;;;4967984;28;20400;-77
2023/12/10 09:40:49;;;;;;;0.20;0.20;;;9.90;1.00;;;;;;4960038;28;20539;-78
2023/12/10 09:43:15;;;;;;;0.82;0.80;;;9.90;1.00;;;;;;4967119;28;20031;-79
2023/12/10 09:45:42;;;;;;;1.40;0.60;;;9.90;1.00;;;;;;4951508;28;20709;-80
2023/12/10 09:48:08;;;;;;;0.63;0.55;;;10.00;1.00;;;;;;4965938;28;20038;-78
2023/12/10 09:50:38;;;;;;;0.10;0.10;;;10.00;1.00;;;;;;4972281;28;20031;-78
2023/12/10 09:53:05;;;;;;;0.32;0.25;;;10.00;1.00;;;;;;4966316;28;20035;-79
2023/12/10 09:55:32;;;;;;;10.45;0.50;;;10.00;1.00;;;;;;4970339;28;20041;-85
2023/12/10 09:57:58;;;;;;;0.15;0.15;;;10.00;1.00;;;;;;4971554;28;20053;-86
2023/12/10 10:00:25;;;;;;;4.68;1.00;;;9.90;1.00;;;;;;4971582;28;20039;-81
2023/12/10 10:03:00;;;;;;;0.20;0.20;;;9.90;1.00;;;;;;4974284;28;20135;-82
2023/12/10 10:05:26;;;;;;;0.57;0.50;;;10.00;1.00;;;;;;4965572;28;20039;-84
2023/12/10 10:07:53;;;;;;;6.22;2.17;;;10.00;1.00;;;;;;4966535;28;20338;-83
2023/12/10 10:10:22;;;;;;;1.60;0.98;;;10.00;1.00;;;;;;4966763;28;20039;-82
2023/12/10 10:12:48;;;;;;;1.23;1.13;;;10.10;1.00;;;;;;4946788;28;20055;-82
2023/12/10 10:15:28;;;;;;;0.20;0.20;;;10.10;1.00;;;;;;4967774;28;20051;-84
2023/12/10 10:17:55;;;;;;;0.68;0.25;;;10.10;1.00;;;;;;4966394;28;20042;-82
2023/12/10 10:20:23;;;;;;;0.98;0.73;;;10.10;1.00;;;;;;4965178;28;20038;-87
2023/12/10 10:22:50;;;;;;;0.20;0.20;;;10.10;1.00;;;;;;4932647;28;20393;-82
2023/12/10 10:25:18;;;;;;;0.20;0.20;;;10.20;1.00;;;;;;4970451;28;20042;-85
2023/12/10 10:27:45;;;;;;;1.85;1.10;;;10.20;1.00;;;;;;4974513;28;20033;-85
2023/12/10 10:30:11;;;;;;;0.20;0.20;;;10.30;1.00;;;;;;4964392;28;20031;-86
2023/12/10 10:32:39;;;;;;;0.47;0.28;;;10.30;1.00;;;;;;4948738;28;20058;-84
2023/12/10 10:35:08;;;;;;;0.77;0.77;;;10.30;1.00;;;;;;4948641;28;20027;-86
2023/12/10 10:37:34;;;;;;;0.38;0.38;;;10.40;1.00;;;;;;4968428;28;20064;-80
2023/12/10 10:40:02;;;;;;;0.55;0.50;;;10.40;1.00;;;;;;4964783;28;20031;-81
2023/12/10 10:42:28;;;;;;;0.20;0.20;;;10.60;1.00;;;;;;4971364;28;20035;-86
2023/12/10 10:44:54;;;;;;;0.70;0.65;;;10.60;1.00;;;;;;4968972;28;20058;-83
2023/12/10 10:47:22;;;;;;;0.52;0.52;;;10.70;1.00;;;;;;4966842;28;20476;-77
2023/12/10 10:49:55;;;;;;;0.47;0.20;;;10.70;1.00;;;;;;4965685;28;20045;-83
2023/12/10 10:52:26;;;;;;;0.40;0.40;;;10.80;1.00;;;;;;4966424;28;20042;-87
2023/12/10 10:54:54;;;;;;;1.35;0.68;;;10.80;1.00;;;;;;4958942;28;20059;-86
2023/12/10 10:57:47;;;;;;;0.10;0.10;;;10.80;1.00;;;;;;4965196;28;20035;-79
2023/12/10 11:00:20;;;;;;;1.98;1.75;;;10.70;1.00;;;;;;4964314;28;20043;-85
2023/12/10 11:02:47;;;;;;;1.90;1.13;;;10.70;1.00;;;;;;4966118;28;20042;-82
2023/12/10 11:05:20;;;;;;;0.60;0.50;;;10.70;1.00;;;;;;4963054;28;20047;-80
2023/12/10 11:07:48;;;;;;;0.32;0.32;;;10.70;1.00;;;;;;4951821;28;20373;-82
2023/12/10 11:10:14;;;;;;;0.10;0.10;;;10.80;1.00;;;;;;4966150;28;20038;-83
2023/12/10 11:12:48;;;;;;;0.32;0.32;;;11.00;1.00;;;;;;4968266;28;20026;-81
2023/12/10 11:15:18;;;;;;;4.35;1.10;;;11.10;1.00;;;;;;4975144;28;20211;-81
2023/12/10 11:17:57;;;;;;;0.52;0.52;;;11.30;1.00;;;;;;4981429;28;20038;-79
2023/12/10 11:20:43;;;;;;;0.38;0.35;;;11.30;1.00;;;;;;4982983;28;20401;-80
2023/12/10 11:23:20;;;;;;;2.53;0.77;;;11.30;1.00;;;;;;4980195;28;20038;-86
2023/12/10 11:25:47;;;;;;;1.80;0.47;;;11.30;1.00;;;;;;4966386;28;20046;-80
2023/12/10 11:28:15;;;;;;;0.90;0.80;;;11.20;1.00;;;;;;4960016;28;20043;-83
2023/12/10 11:30:43;;;;;;;0.98;0.40;;;11.10;1.00;;;;;;4965504;28;20027;-84
2023/12/10 11:33:11;;;;;;;0.10;0.10;;;11.20;1.00;;;;;;4963665;28;20043;-80
2023/12/10 11:35:38;;;;;;;0.73;0.73;;;11.10;1.00;;;;;;4964813;28;20039;-82
2023/12/10 11:38:04;;;;;;;9.55;0.47;;;11.00;1.00;;;;;;4961125;28;20031;-81
2023/12/10 11:40:31;;;;;;;0.20;0.20;;;10.90;1.00;;;;;;4963026;28;20068;-80
2023/12/10 11:43:05;;;;;;;2.33;0.93;;;11.00;1.00;;;;;;4962700;28;20066;-81
2023/12/10 11:45:31;;;;;;;0.15;0.15;;;10.90;1.00;;;;;;4961875;28;20058;-83
2023/12/10 11:47:57;;;;;;;4.38;1.65;;;10.90;1.00;;;;;;4962383;28;20377;-84
2023/12/10 11:50:24;;;;;;;6.13;0.57;;;10.90;1.00;;;;;;4962658;28;20045;-85
2023/12/10 11:52:50;;;;;;;7.15;1.30;;;10.80;1.00;;;;;;4964745;28;20038;-84
2023/12/10 11:55:17;;;;;;;1.75;0.65;;;10.80;1.00;;;;;;4966372;28;20348;-82
2023/12/10 11:57:44;;;;;;;0.77;0.75;;;10.80;1.00;;;;;;4962258;28;20031;-85
2023/12/10 12:00:13;;;;;;;0.20;0.15;;;10.70;4.80;;;;;;4957233;28;20035;-83
2023/12/10 12:02:44;;;;;;;1.42;1.08;;;10.70;16.40;;;;;;4967314;28;20050;-80
2023/12/10 12:05:12;;;;;;;1.50;0.98;;;10.60;11.30;;;;;;4963988;28;20043;-79
2023/12/10 12:07:39;;;;;;;0.73;0.73;;;10.60;23.90;;;;;;4960838;28;20028;-82
2023/12/10 12:10:06;;;;;;;2.38;1.85;;;10.50;58.60;;;;;;4960081;28;20035;-80
2023/12/10 12:12:37;;;;;;;1.17;1.13;;;10.60;68.80;;;;;;4969219;28;20040;-82
2023/12/10 12:15:03;;;;;;;;;;;10.50;91.30;;;;;;4962560;28;20046;-80
2023/12/10 12:17:29;;;;;;;0.88;0.82;;;10.50;99.90;;;;;;4964374;28;19910;-77
2023/12/10 12:20:11;;;;;;;1.75;1.00;;;10.50;99.90;;;;;;4960998;28;20036;-84
2023/12/10 12:22:37;;;;;;;;;;;10.40;99.90;;;;;;4963478;28;20031;-80
2023/12/10 12:25:03;;;;;;;1.27;1.23;;;10.40;99.90;;;;;;4965465;28;19906;-80
2023/12/10 12:27:29;;;;;;;1.10;0.95;;;10.20;99.90;;;;;;4931251;29;20039;-80
2023/12/10 12:29:56;;;;;;;2.85;1.85;;;10.10;99.90;;;;;;4961032;28;20504;-81
2023/12/10 12:32:22;;;;;;;0.68;0.32;;;10.00;99.90;;;;;;4971277;28;20042;-80
2023/12/10 12:34:48;;;;;;;1.15;1.08;;;10.00;99.90;;;;;;4973249;28;20031;-83
2023/12/10 12:37:14;;;;;;;0.20;0.20;;;10.00;99.90;;;;;;4973423;28;20376;-81
2023/12/10 12:39:40;;;;;;;0.38;0.38;;;9.90;99.90;;;;;;4970471;28;20031;-81
2023/12/10 12:42:07;;;;;;;0.82;0.75;;;9.90;99.90;;;;;;4962398;28;20404;-80
2023/12/10 12:44:34;;;;;;;1.55;0.90;;;9.80;99.90;;;;;;4967185;28;20035;-83
2023/12/10 12:47:00;;;;;;;1.60;1.25;;;9.70;99.90;;;;;;4952675;28;20051;-81
2023/12/10 12:49:26;;;;;;;3.13;1.75;;;9.70;1.00;;;;;;4966966;28;20042;-79
2023/12/10 12:51:52;;;;;;;2.00;1.55;;;9.70;1.00;;;;;;4971878;28;20035;-80
2023/12/10 12:54:18;;;;;;;1.17;1.15;;;9.70;99.90;;;;;;4972276;28;20027;-82
2023/12/10 12:56:45;;;;;;;2.30;1.95;;;9.80;99.90;;;;;;4974573;28;20034;-83